Bretagne — FNBR — position and weather

sailwx.info

Track history (hours):
 
Tides and Currents Weather Stations Pressure Air Temp Water Temp Dewpoint Dewpoint Depression Visibility Wind Speed Wind Dir Waves Ship Positions

Bretagne

Operator: Brittany Ferries

Last reported at 2016-Apr-28 22:09 UTC. Time now 2016-Apr-29 10:03 UTC.
Position N 50°25' W 001°20'.

Length 151 m; beam 27 m.

Type: Ship. MMSI: 227286000.

Date/timePositionNaut miles runAvg speedWind from/ knotsBaromVisibWave heightAir tempDewpointWater temp
2016-Apr-28 22:09N 50°25' W 001°20'914.7
2016-Apr-28 21:33N 50°32' W 001°11'1212.1
2016-Apr-28 20:33N 50°43' W 001°01'7 6.7
2016-Apr-28 19:33N 50°49' W 001°06'0 0.0
2016-Apr-28 18:33N 50°49' W 001°06'0 0.0
2016-Apr-28 17:33N 50°49' W 001°06'2 2.3
2016-Apr-28 16:34N 50°46' W 001°06'1413.8
2016-Apr-28 15:33N 50°33' W 001°10'7 0.4
2016-Apr-27 21:33N 50°27' W 001°16'1413.9
2016-Apr-27 20:33N 50°38' W 001°03'1010.2
2016-Apr-27 19:34N 50°48' W 001°07'1 0.8
2016-Apr-27 18:33N 50°49' W 001°06'0 0.0
2016-Apr-27 17:33N 50°49' W 001°06'0 0.0
2016-Apr-27 16:33N 50°49' W 001°06'0 0.0
2016-Apr-27 15:33N 50°49' W 001°06'0 0.0
2016-Apr-27 14:33N 50°49' W 001°06'0 0.0
2016-Apr-27 13:33N 50°49' W 001°06'0 0.0
2016-Apr-27 12:33N 50°49' W 001°06'0 0.0
2016-Apr-27 11:33N 50°49' W 001°06'0 0.0
2016-Apr-27 10:33N 50°49' W 001°06'0 0.0
2016-Apr-27 09:33N 50°49' W 001°06'0 0.0
2016-Apr-27 08:33N 50°49' W 001°06'0 0.0
2016-Apr-27 07:33N 50°49' W 001°06'0 0.3
2016-Apr-27 06:33N 50°49' W 001°06'1010.0
2016-Apr-27 05:34N 50°39' W 001°05'17 0.5
2016-Apr-25 21:33N 50°24' W 001°17'1413.7
2016-Apr-25 20:33N 50°36' W 001°08'1010.0
2016-Apr-25 19:34N 50°46' W 001°05'3 2.5
2016-Apr-25 18:31N 50°49' W 001°06'0 0.0
2016-Apr-25 17:31N 50°49' W 001°06'4 4.3
2016-Apr-25 16:34N 50°45' W 001°05'1814.0
2016-Apr-25 15:15N 50°29' W 001°20'11412.9
2016-Apr-25 06:24N 48°38' W 002°02'10713.4
2016-Apr-24 22:25N 50°22' W 001°20'1213.8
2016-Apr-24 21:33N 50°33' W 001°12'1110.9
2016-Apr-24 20:33N 50°42' W 001°03'7 6.4
2016-Apr-24 19:30N 50°49' W 001°06'0 0.0
2016-Apr-24 18:30N 50°49' W 001°06'2 1.9
2016-Apr-24 17:33N 50°47' W 001°06'8 8.1
2016-Apr-24 16:33N 50°39' W 001°05'9 8.8
2016-Apr-24 15:33N 50°32' W 001°13'9 0.5
2016-Apr-23 21:33N 50°24' W 001°20'1313.4
2016-Apr-23 20:34N 50°35' W 001°09'1110.7
2016-Apr-23 19:34N 50°45' W 001°05'3 3.1
2016-Apr-23 18:31N 50°49' W 001°06'0 0.0
2016-Apr-23 17:31N 50°49' W 001°06'4 4.7
2016-Apr-23 16:34N 50°44' W 001°04'1312.5
2016-Apr-23 15:34N 50°32' W 001°09'9 0.5
2016-Apr-22 21:30N 50°25' W 001°18'1313.7
2016-Apr-22 20:33N 50°36' W 001°08'1110.6
2016-Apr-22 19:34N 50°47' W 001°06'2 1.9
2016-Apr-22 18:32N 50°49' W 001°06'0 0.0
2016-Apr-22 17:32N 50°49' W 001°06'7 7.2
2016-Apr-22 16:33N 50°43' W 000°59'1615.6
2016-Apr-22 15:32N 50°29' W 001°13'12 0.7
2016-Apr-21 22:06N 50°20' W 001°24'814.4
2016-Apr-21 21:33N 50°27' W 001°17'1313.3
2016-Apr-21 20:33N 50°38' W 001°06'1110.6
2016-Apr-21 19:34N 50°49' W 001°06'1 0.5
2016-Apr-21 18:31N 50°49' W 001°06'0 0.0
2016-Apr-21 17:33N 50°49' W 001°06'9 8.9
2016-Apr-21 16:33N 50°41' W 000°58'1818.0
2016-Apr-21 15:33N 50°27' W 001°15'1817.2
2016-Apr-21 14:32N 50°14' W 001°34'66 5.8
2016-Apr-21 03:06N 49°15' W 002°21'713.0
2016-Apr-21 02:33N 49°22' W 002°18'4414.7
2016-Apr-20 23:33N 50°00' W 001°44'3015.1
2016-Apr-20 21:33N 50°25' W 001°18'1413.6
2016-Apr-20 20:33N 50°37' W 001°07'1010.1
2016-Apr-20 19:33N 50°47' W 001°06'2 1.6
2016-Apr-20 18:31N 50°49' W 001°06'0 0.0
2016-Apr-20 17:31N 50°49' W 001°06'0 0.0
2016-Apr-20 16:31N 50°49' W 001°06'0 0.0
2016-Apr-20 15:31N 50°49' W 001°06'0 0.0
2016-Apr-20 14:31N 50°49' W 001°06'0 0.0
2016-Apr-20 13:31N 50°49' W 001°06'0 0.0
2016-Apr-20 12:32N 50°49' W 001°06'0 0.0
2016-Apr-20 11:32N 50°49' W 001°06'0 0.0
2016-Apr-20 10:32N 50°49' W 001°06'0 0.0
2016-Apr-20 09:32N 50°49' W 001°06'0 0.0
2016-Apr-20 08:32N 50°49' W 001°06'0 0.0
2016-Apr-20 07:32N 50°49' W 001°06'0 0.0
2016-Apr-20 06:34N 50°49' W 001°06'1110.5
2016-Apr-20 05:33N 50°38' W 001°06'2015.9
2016-Apr-20 04:18N 50°22' W 001°24'1214.3
2016-Apr-20 03:26N 50°11' W 001°34'1313.7
2016-Apr-20 02:30N 49°60' W 001°44'2411.9
2016-Apr-20 00:28N 49°40' W 002°05'2110.2
2016-Apr-19 22:25N 49°21' W 002°19'44 3.6
2016-Apr-19 10:15N 48°38' W 002°02'0 0.0
2016-Apr-19 08:09N 48°38' W 002°02'0 0.0
2016-Apr-19 07:27N 48°38' W 002°02'0 0.0
2016-Apr-19 06:33N 48°38' W 002°02'5 4.7
2016-Apr-19 05:32N 48°42' W 002°06'1717.5
2016-Apr-19 04:33N 48°56' W 002°21'1914.7
2016-Apr-19 03:15N 49°15' W 002°21'3312.0
2016-Apr-19 00:31N 49°46' W 002°02'  
Track history (hours):
 
Tides and Currents Weather Stations Pressure Air Temp Water Temp Dewpoint Dewpoint Depression Visibility Wind Speed Wind Dir Waves Ship Positions

Bretagne

Operator: Brittany Ferries

Last reported at 2016-Apr-28 22:09 UTC. Time now 2016-Apr-29 10:03 UTC.
Position N 50°25' W 001°20'.

Length 151 m; beam 27 m.

Type: Ship. MMSI: 227286000.

Date/timePositionNaut miles runAvg speedWind from/ knotsBaromVisibWave heightAir tempDewpointWater temp
2016-Apr-28 22:09N 50°25' W 001°20'914.7
2016-Apr-28 21:33N 50°32' W 001°11'1212.1
2016-Apr-28 20:33N 50°43' W 001°01'7 6.7
2016-Apr-28 19:33N 50°49' W 001°06'0 0.0
2016-Apr-28 18:33N 50°49' W 001°06'0 0.0
2016-Apr-28 17:33N 50°49' W 001°06'2 2.3
2016-Apr-28 16:34N 50°46' W 001°06'1413.8
2016-Apr-28 15:33N 50°33' W 001°10'7 0.4
2016-Apr-27 21:33N 50°27' W 001°16'1413.9
2016-Apr-27 20:33N 50°38' W 001°03'1010.2
2016-Apr-27 19:34N 50°48' W 001°07'1 0.8
2016-Apr-27 18:33N 50°49' W 001°06'0 0.0
2016-Apr-27 17:33N 50°49' W 001°06'0 0.0
2016-Apr-27 16:33N 50°49' W 001°06'0 0.0
2016-Apr-27 15:33N 50°49' W 001°06'0 0.0
2016-Apr-27 14:33N 50°49' W 001°06'0 0.0
2016-Apr-27 13:33N 50°49' W 001°06'0 0.0
2016-Apr-27 12:33N 50°49' W 001°06'0 0.0
2016-Apr-27 11:33N 50°49' W 001°06'0 0.0
2016-Apr-27 10:33N 50°49' W 001°06'0 0.0
2016-Apr-27 09:33N 50°49' W 001°06'0 0.0
2016-Apr-27 08:33N 50°49' W 001°06'0 0.0
2016-Apr-27 07:33N 50°49' W 001°06'0 0.3
2016-Apr-27 06:33N 50°49' W 001°06'1010.0
2016-Apr-27 05:34N 50°39' W 001°05'17 0.5
2016-Apr-25 21:33N 50°24' W 001°17'1413.7
2016-Apr-25 20:33N 50°36' W 001°08'1010.0
2016-Apr-25 19:34N 50°46' W 001°05'3 2.5
2016-Apr-25 18:31N 50°49' W 001°06'0 0.0
2016-Apr-25 17:31N 50°49' W 001°06'4 4.3
2016-Apr-25 16:34N 50°45' W 001°05'1814.0
2016-Apr-25 15:15N 50°29' W 001°20'11412.9
2016-Apr-25 06:24N 48°38' W 002°02'10713.4
2016-Apr-24 22:25N 50°22' W 001°20'1213.8
2016-Apr-24 21:33N 50°33' W 001°12'1110.9
2016-Apr-24 20:33N 50°42' W 001°03'7 6.4
2016-Apr-24 19:30N 50°49' W 001°06'0 0.0
2016-Apr-24 18:30N 50°49' W 001°06'2 1.9
2016-Apr-24 17:33N 50°47' W 001°06'8 8.1
2016-Apr-24 16:33N 50°39' W 001°05'9 8.8
2016-Apr-24 15:33N 50°32' W 001°13'9 0.5
2016-Apr-23 21:33N 50°24' W 001°20'1313.4
2016-Apr-23 20:34N 50°35' W 001°09'1110.7
2016-Apr-23 19:34N 50°45' W 001°05'3 3.1
2016-Apr-23 18:31N 50°49' W 001°06'0 0.0
2016-Apr-23 17:31N 50°49' W 001°06'4 4.7
2016-Apr-23 16:34N 50°44' W 001°04'1312.5
2016-Apr-23 15:34N 50°32' W 001°09'9 0.5
2016-Apr-22 21:30N 50°25' W 001°18'1313.7
2016-Apr-22 20:33N 50°36' W 001°08'1110.6
2016-Apr-22 19:34N 50°47' W 001°06'2 1.9
2016-Apr-22 18:32N 50°49' W 001°06'0 0.0
2016-Apr-22 17:32N 50°49' W 001°06'7 7.2
2016-Apr-22 16:33N 50°43' W 000°59'1615.6
2016-Apr-22 15:32N 50°29' W 001°13'12 0.7
2016-Apr-21 22:06N 50°20' W 001°24'814.4
2016-Apr-21 21:33N 50°27' W 001°17'1313.3
2016-Apr-21 20:33N 50°38' W 001°06'1110.6
2016-Apr-21 19:34N 50°49' W 001°06'1 0.5
2016-Apr-21 18:31N 50°49' W 001°06'0 0.0
2016-Apr-21 17:33N 50°49' W 001°06'9 8.9
2016-Apr-21 16:33N 50°41' W 000°58'1818.0
2016-Apr-21 15:33N 50°27' W 001°15'1817.2
2016-Apr-21 14:32N 50°14' W 001°34'66 5.8
2016-Apr-21 03:06N 49°15' W 002°21'713.0
2016-Apr-21 02:33N 49°22' W 002°18'4414.7
2016-Apr-20 23:33N 50°00' W 001°44'3015.1
2016-Apr-20 21:33N 50°25' W 001°18'1413.6
2016-Apr-20 20:33N 50°37' W 001°07'1010.1
2016-Apr-20 19:33N 50°47' W 001°06'2 1.6
2016-Apr-20 18:31N 50°49' W 001°06'0 0.0
2016-Apr-20 17:31N 50°49' W 001°06'0 0.0
2016-Apr-20 16:31N 50°49' W 001°06'0 0.0
2016-Apr-20 15:31N 50°49' W 001°06'0 0.0
2016-Apr-20 14:31N 50°49' W 001°06'0 0.0
2016-Apr-20 13:31N 50°49' W 001°06'0 0.0
2016-Apr-20 12:32N 50°49' W 001°06'0 0.0
2016-Apr-20 11:32N 50°49' W 001°06'0 0.0
2016-Apr-20 10:32N 50°49' W 001°06'0 0.0
2016-Apr-20 09:32N 50°49' W 001°06'0 0.0
2016-Apr-20 08:32N 50°49' W 001°06'0 0.0
2016-Apr-20 07:32N 50°49' W 001°06'0 0.0
2016-Apr-20 06:34N 50°49' W 001°06'1110.5
2016-Apr-20 05:33N 50°38' W 001°06'2015.9
2016-Apr-20 04:18N 50°22' W 001°24'1214.3
2016-Apr-20 03:26N 50°11' W 001°34'1313.7
2016-Apr-20 02:30N 49°60' W 001°44'2411.9
2016-Apr-20 00:28N 49°40' W 002°05'2110.2
2016-Apr-19 22:25N 49°21' W 002°19'44 3.6
2016-Apr-19 10:15N 48°38' W 002°02'0 0.0
2016-Apr-19 08:09N 48°38' W 002°02'0 0.0
2016-Apr-19 07:27N 48°38' W 002°02'0 0.0
2016-Apr-19 06:33N 48°38' W 002°02'5 4.7
2016-Apr-19 05:32N 48°42' W 002°06'1717.5
2016-Apr-19 04:33N 48°56' W 002°21'1914.7
2016-Apr-19 03:15N 49°15' W 002°21'3312.0
2016-Apr-19 00:31N 49°46' W 002°02'  

Dump ship's entire track history